Time;durP1;ratioP1;P1;durP2;ratioP2;P2;SDS_P1;SDS_P2;PMS_P1;PMS_P2;Temp;Humidity;BMP_temperature;BMP_pressure;BME280_temperature;BME280_humidity;BME280_pressure;Samples;Min_cycle;Max_cycle;Signal;HPM_P1;HPM_P2
2021/10/25 00:02:07;;;;;;;;;35.25;33.50;;;;;-147.17;100.00;50001.50;5070723;28;51640;-66
2021/10/25 00:04:33;;;;;;;;;38.25;35.75;;;;;-147.17;100.00;50021.19;5045988;28;51175;-66
2021/10/25 00:06:58;;;;;;;;;39.25;35.75;;;;;-147.17;100.00;49979.84;5051324;28;51164;-66
2021/10/25 00:09:24;;;;;;;;;36.75;33.50;;;;;-147.17;100.00;49985.75;5050730;28;51940;-66
2021/10/25 00:11:50;;;;;;;;;36.25;34.25;;;;;-147.17;100.00;49973.94;5056186;28;51102;-66
2021/10/25 00:14:16;;;;;;;;;42.75;37.25;;;;;-147.17;100.00;49960.16;5054382;28;50984;-66
2021/10/25 00:16:44;;;;;;;;;38.75;34.50;;;;;-147.17;100.00;49973.94;5063897;28;50940;-66
2021/10/25 00:19:11;;;;;;;;;46.25;37.50;;;;;-147.17;100.00;49987.72;5045255;28;53979;-66
2021/10/25 00:21:36;;;;;;;;;27.75;26.00;;;;;-147.17;100.00;49975.91;5070865;28;51284;-67
2021/10/25 00:24:03;;;;;;;;;37.50;35.25;;;;;-147.17;100.00;49966.06;5056689;28;51152;-65
2021/10/25 00:26:29;;;;;;;;;34.75;32.25;;;;;-147.17;100.00;49958.19;5042417;28;51241;-66
2021/10/25 00:28:55;;;;;;;;;27.25;26.50;;;;;-147.17;100.00;49981.81;5058787;28;53779;-66
2021/10/25 00:31:20;;;;;;;;;37.25;34.25;;;;;-147.17;100.00;49970.00;5051018;28;51145;-65
2021/10/25 00:33:46;;;;;;;;;28.25;25.50;;;;;-147.17;100.00;50019.22;5051753;28;51084;-65
2021/10/25 00:36:11;;;;;;;;;31.75;30.75;;;;;-147.17;100.00;49987.72;5070381;28;51018;-65
2021/10/25 00:38:37;;;;;;;;;35.75;32.00;;;;;-147.17;100.00;50001.50;5064546;28;51780;-63
2021/10/25 00:41:03;;;;;;;;;31.25;31.00;;;;;-147.17;100.00;49989.69;5056712;28;51156;-63
2021/10/25 00:43:29;;;;;;;;;35.25;30.25;;;;;-147.17;100.00;49962.13;5071876;28;51280;-63
2021/10/25 00:45:54;;;;;;;;;30.00;29.50;;;;;-147.17;100.00;49981.81;5069424;28;51227;-64
2021/10/25 00:48:20;;;;;;;;;42.75;37.75;;;;;-147.17;100.00;49973.94;5055544;28;51150;-66
2021/10/25 00:50:46;;;;;;;;;33.75;32.25;;;;;-147.17;100.00;49942.44;5059079;28;51159;-66
2021/10/25 00:53:12;;;;;;;;;32.25;31.50;;;;;-147.17;100.00;49956.22;5070870;28;51230;-66
2021/10/25 00:55:39;;;;;;;;;38.75;35.75;;;;;-147.17;100.00;49985.75;5061464;28;51113;-66
2021/10/25 00:58:05;;;;;;;;;34.75;32.50;;;;;-147.17;100.00;49979.84;5064976;28;51921;-66
2021/10/25 01:00:31;;;;;;;;;33.75;32.75;;;;;-147.17;100.00;49995.59;5066256;28;51182;-66
2021/10/25 01:02:57;;;;;;;;;19.50;19.00;;;;;-147.17;100.00;49979.84;5074634;28;51013;-66
2021/10/25 01:05:23;;;;;;;;;31.00;29.00;;;;;-147.17;100.00;49997.56;5070784;28;51102;-66
2021/10/25 01:07:50;;;;;;;;;31.00;29.00;;;;;-147.17;100.00;49985.75;5053777;28;51209;-66
2021/10/25 01:10:16;;;;;;;;;30.25;26.75;;;;;-147.17;100.00;49979.84;5053902;28;51027;-65
2021/10/25 01:12:43;;;;;;;;;30.25;29.25;;;;;-147.17;100.00;49962.13;5054119;28;51346;-66
2021/10/25 01:15:09;;;;;;;;;32.75;31.50;;;;;-147.17;100.00;49991.66;5054771;28;51316;-65
2021/10/25 01:17:35;;;;;;;;;30.00;29.25;;;;;-147.17;100.00;50007.41;5053762;28;51777;-65
2021/10/25 01:20:01;;;;;;;;;32.50;32.50;;;;;-147.17;100.00;50011.34;5054094;28;51016;-65
2021/10/25 01:22:27;;;;;;;;;33.50;31.75;;;;;-147.17;100.00;50021.19;5055293;28;51079;-65
2021/10/25 01:24:54;;;;;;;;;30.25;28.50;;;;;-147.17;100.00;50007.41;5068297;28;51082;-66
2021/10/25 01:27:21;;;;;;;;;33.75;32.50;;;;;-147.17;100.00;50062.53;5058370;28;51041;-65
2021/10/25 01:29:46;;;;;;;;;31.25;31.00;;;;;-147.17;100.00;50017.25;5072677;28;51197;-66
2021/10/25 01:32:13;;;;;;;;;31.00;31.00;;;;;-147.17;100.00;50038.91;5058639;28;51342;-66
2021/10/25 01:34:40;;;;;;;;;32.25;31.50;;;;;-147.17;100.00;50011.34;5054077;28;51266;-66
2021/10/25 01:37:07;;;;;;;;;32.00;29.75;;;;;-147.17;100.00;50025.13;5059815;28;51720;-66
2021/10/25 01:39:33;;;;;;;;;28.00;27.00;;;;;-147.17;100.00;50033.00;5073375;28;51118;-66
2021/10/25 01:41:58;;;;;;;;;26.00;26.00;;;;;-147.17;100.00;50040.88;5073433;28;50947;-65
2021/10/25 01:44:24;;;;;;;;;32.00;28.00;;;;;-147.17;100.00;50062.53;5073494;28;51062;-65
2021/10/25 01:46:49;;;;;;;;;30.50;30.00;;;;;-147.17;100.00;50029.06;5071656;28;52032;-65
2021/10/25 01:49:15;;;;;;;;;33.75;30.00;;;;;-147.17;100.00;50060.56;5061668;28;51078;-65
2021/10/25 01:51:42;;;;;;;;;27.00;26.00;;;;;-147.17;100.00;50046.78;5046187;28;51023;-65
2021/10/25 01:54:08;;;;;;;;;28.50;27.25;;;;;-147.17;100.00;50044.81;5064433;28;50995;-65
2021/10/25 01:56:34;;;;;;;;;30.75;29.75;;;;;-147.17;100.00;50052.69;5071622;28;51528;-65
2021/10/25 01:58:59;;;;;;;;;30.75;29.00;;;;;-147.17;100.00;50044.81;5070691;28;51259;-65
2021/10/25 02:01:25;;;;;;;;;35.25;31.75;;;;;-147.17;100.00;50084.19;5054123;28;51122;-65
2021/10/25 02:03:51;;;;;;;;;32.50;28.25;;;;;-147.17;100.00;50062.53;5069001;28;51337;-65
2021/10/25 02:06:18;;;;;;;;;26.50;26.50;;;;;-147.17;100.00;50068.44;5059040;28;51887;-65
2021/10/25 02:08:44;;;;;;;;;22.00;19.00;;;;;-147.17;100.00;50080.25;5073281;28;51148;-65
2021/10/25 02:11:10;;;;;;;;;27.00;27.00;;;;;-147.17;100.00;50080.25;5054173;28;51160;-65
2021/10/25 02:13:35;;;;;;;;;31.50;27.25;;;;;-147.17;100.00;50086.16;5051866;28;51307;-65
2021/10/25 02:16:01;;;;;;;;;30.25;29.50;;;;;-147.17;100.00;50074.34;5061471;28;51660;-65
2021/10/25 02:18:26;;;;;;;;;26.25;26.00;;;;;-147.17;100.00;50076.31;5034979;28;51031;-65
2021/10/25 02:20:51;;;;;;;;;31.25;28.25;;;;;-147.17;100.00;50107.78;5053008;28;51408;-65
2021/10/25 02:23:17;;;;;;;;;30.50;29.50;;;;;-147.17;100.00;50088.13;5056884;28;51058;-65
2021/10/25 02:25:45;;;;;;;;;27.75;25.25;;;;;-147.17;100.00;50101.88;5044089;28;52589;-66
2021/10/25 02:28:11;;;;;;;;;26.75;25.25;;;;;-147.17;100.00;50113.69;5065632;28;51075;-65
2021/10/25 02:30:36;;;;;;;;;17.50;17.25;;;;;-147.17;100.00;50074.34;5055671;28;51216;-65
2021/10/25 02:33:02;;;;;;;;;25.00;24.00;;;;;-147.17;100.00;50088.13;5070356;28;51360;-65
2021/10/25 02:35:28;;;;;;;;;30.25;29.00;;;;;-147.17;100.00;50084.19;5054396;28;52270;-65
2021/10/25 02:37:56;;;;;;;;;27.50;26.50;;;;;-147.17;100.00;50097.94;5057468;28;51287;-65
2021/10/25 02:40:24;;;;;;;;;25.00;25.00;;;;;-147.17;100.00;50119.59;5071941;28;51858;-65
2021/10/25 02:42:50;;;;;;;;;22.50;22.50;;;;;-147.17;100.00;50095.97;5055132;28;51379;-65
2021/10/25 02:45:16;;;;;;;;;25.75;24.00;;;;;-147.17;100.00;50119.59;5025792;28;52589;-66
2021/10/25 02:47:41;;;;;;;;;20.25;19.75;;;;;-147.17;100.00;50127.47;5052129;28;51188;-66
2021/10/25 02:50:07;;;;;;;;;23.75;23.50;;;;;-147.17;100.00;50094.00;5054854;28;51255;-66
2021/10/25 02:52:33;;;;;;;;;26.00;23.50;;;;;-147.17;100.00;50123.53;5071507;28;51287;-66
2021/10/25 02:54:58;;;;;;;;;23.50;22.75;;;;;-147.17;100.00;50119.59;5072274;28;51125;-66
2021/10/25 02:57:24;;;;;;;;;25.25;24.50;;;;;-147.17;100.00;50105.81;5072019;28;51240;-66
2021/10/25 02:59:49;;;;;;;;;20.75;20.25;;;;;-147.17;100.00;50143.22;5043594;28;51174;-65
2021/10/25 03:02:15;;;;;;;;;26.75;24.50;;;;;-147.17;100.00;50131.41;5072144;28;51799;-66
2021/10/25 03:04:40;;;;;;;;;23.25;21.75;;;;;-147.17;100.00;50155.03;5072487;28;51131;-66
2021/10/25 03:07:05;;;;;;;;;27.00;23.00;;;;;-147.17;100.00;50131.41;5071992;28;51096;-66
2021/10/25 03:09:31;;;;;;;;;21.00;20.00;;;;;-147.17;100.00;50153.06;5072424;28;51081;-66
2021/10/25 03:11:56;;;;;;;;;23.00;23.00;;;;;-147.17;100.00;50131.41;5052973;28;51130;-66
2021/10/25 03:14:21;;;;;;;;;19.25;19.00;;;;;-147.17;100.00;50157.00;5052178;28;51141;-65
2021/10/25 03:16:47;;;;;;;;;23.75;23.25;;;;;-147.17;100.00;50184.56;5063551;28;51228;-65
2021/10/25 03:19:12;;;;;;;;;23.00;22.50;;;;;-147.17;100.00;50151.09;5034292;28;51068;-66
2021/10/25 03:21:37;;;;;;;;;19.50;19.50;;;;;-147.17;100.00;50099.91;5052706;28;51256;-66
2021/10/25 03:24:03;;;;;;;;;24.75;23.00;;;;;-147.17;100.00;50139.28;5062184;28;51945;-66
2021/10/25 03:26:29;;;;;;;;;23.00;23.00;;;;;-147.17;100.00;50125.50;5040127;28;51119;-66
2021/10/25 03:28:54;;;;;;;;;25.00;24.50;;;;;-147.17;100.00;50123.53;5062386;28;51077;-66
2021/10/25 03:31:21;;;;;;;;;22.25;21.25;;;;;-147.17;100.00;50143.22;5059284;28;51350;-66
2021/10/25 03:33:48;;;;;;;;;23.00;20.75;;;;;-147.17;100.00;50162.91;5034005;28;52001;-66
2021/10/25 03:36:15;;;;;;;;;23.50;21.75;;;;;-147.17;100.00;50123.53;5059038;28;51015;-66
2021/10/25 03:38:41;;;;;;;;;21.75;21.50;;;;;-147.17;100.00;50141.25;5052250;28;51121;-66
2021/10/25 03:41:16;;;;;;;;;23.25;22.25;;;;;-147.17;100.00;50151.09;5060870;28;51410;-67
2021/10/25 03:43:46;;;;;;;;;24.75;24.25;;;;;-147.17;100.00;50099.91;5071440;28;51903;-66
2021/10/25 03:46:23;;;;;;;;;27.50;27.00;;;;;-147.17;100.00;50107.78;5070585;28;51164;-66
2021/10/25 03:51:18;;;;;;;;;26.50;25.75;;;;;-147.17;100.00;50107.78;5061361;28;51323;-66
2021/10/25 03:53:53;;;;;;;;;25.75;23.75;;;;;-147.17;100.00;50058.59;5070782;28;51847;-66
2021/10/25 03:56:42;;;;;;;;;27.50;24.75;;;;;-147.17;100.00;50101.88;5071315;28;51009;-66
2021/10/25 04:04:31;;;;;;;;;21.75;21.75;;;;;-147.17;100.00;50054.66;5046577;28;51068;-66
2021/10/25 04:26:31;;;;;;;;;23.75;23.25;;;;;-147.17;100.00;49991.66;5060617;28;51662;-66
2021/10/25 04:28:57;;;;;;;;;25.00;23.75;;;;;-147.17;100.00;49966.06;5043902;28;51007;-66
2021/10/25 04:31:22;;;;;;;;;28.00;26.50;;;;;-147.17;100.00;49966.06;5063084;28;51148;-66
2021/10/25 04:33:48;;;;;;;;;24.75;24.25;;;;;-147.17;100.00;49977.88;5047057;28;51404;-65
2021/10/25 04:36:13;;;;;;;;;24.25;21.25;;;;;-147.17;100.00;49962.13;5053548;28;54064;-66
2021/10/25 04:38:38;;;;;;;;;23.00;22.25;;;;;-147.17;100.00;49914.91;5036547;28;51234;-66
2021/10/25 04:41:04;;;;;;;;;24.50;21.75;;;;;-147.17;100.00;49897.19;5036379;28;51621;-66
2021/10/25 04:43:29;;;;;;;;;23.00;22.50;;;;;-147.17;100.00;49893.25;5074089;28;51184;-66
2021/10/25 04:45:55;;;;;;;;;23.00;22.50;;;;;-147.17;100.00;49893.25;5058100;28;51591;-66
2021/10/25 04:48:20;;;;;;;;;19.25;19.00;;;;;-147.17;100.00;49879.47;5059772;28;50945;-66
2021/10/25 04:50:46;;;;;;;;;20.50;20.50;;;;;-147.17;100.00;49851.91;5055795;28;51137;-66
2021/10/25 04:53:11;;;;;;;;;24.75;22.50;;;;;-147.17;100.00;49857.81;5056631;28;51440;-66
2021/10/25 04:55:37;;;;;;;;;20.00;18.25;;;;;-147.17;100.00;49846.00;5057701;28;51650;-66
2021/10/25 04:58:03;;;;;;;;;24.00;24.00;;;;;-147.17;100.00;49812.53;5060475;28;50881;-66
2021/10/25 05:00:28;;;;;;;;;24.25;23.50;;;;;-147.17;100.00;49820.41;5048379;28;51217;-66
2021/10/25 05:02:55;;;;;;;;;21.75;21.75;;;;;-147.17;100.00;49832.22;5054202;28;51751;-66
2021/10/25 05:05:21;;;;;;;;;22.00;20.00;;;;;-147.17;100.00;49832.22;5054239;28;52842;-66
2021/10/25 05:07:46;;;;;;;;;20.75;19.50;;;;;-147.17;100.00;49830.25;5054097;28;51214;-66
2021/10/25 05:10:12;;;;;;;;;23.25;22.25;;;;;-147.17;100.00;49832.22;5053987;28;51111;-66
2021/10/25 05:12:37;;;;;;;;;28.50;27.00;;;;;-147.17;100.00;49849.94;5054632;28;51129;-66
2021/10/25 05:15:03;;;;;;;;;21.75;21.75;;;;;-147.17;100.00;49816.47;5053839;28;51549;-66
2021/10/25 05:17:29;;;;;;;;;21.00;20.00;;;;;-147.17;100.00;49830.25;5054225;28;51054;-66
2021/10/25 05:19:54;;;;;;;;;26.00;23.00;;;;;-147.17;100.00;49777.13;5057997;28;51821;-66
2021/10/25 05:22:20;;;;;;;;;24.75;23.00;;;;;-147.17;100.00;49820.41;5036212;28;51118;-66
2021/10/25 05:24:46;;;;;;;;;24.25;24.00;;;;;-147.17;100.00;49808.59;5066822;28;51766;-66
2021/10/25 05:27:12;;;;;;;;;23.25;21.75;;;;;-147.17;100.00;49808.59;5054140;28;51244;-66
2021/10/25 05:29:38;;;;;;;;;27.50;26.50;;;;;-147.17;100.00;49786.94;5053758;28;51108;-66
2021/10/25 05:32:04;;;;;;;;;26.25;25.75;;;;;-147.17;100.00;49804.66;5054210;28;51230;-66
2021/10/25 05:34:31;;;;;;;;;27.00;24.25;;;;;-147.17;100.00;49849.94;5052831;28;51154;-66
2021/10/25 05:36:57;;;;;;;;;28.25;26.50;;;;;-147.17;100.00;49838.13;5035653;28;51200;-67
2021/10/25 05:39:22;;;;;;;;;25.75;24.75;;;;;-147.17;100.00;49844.03;5035313;28;51168;-66
2021/10/25 05:41:48;;;;;;;;;24.50;23.00;;;;;-147.17;100.00;49851.91;5060570;28;51381;-66
2021/10/25 05:44:13;;;;;;;;;23.50;23.00;;;;;-147.17;100.00;49834.19;5069368;28;50998;-66
2021/10/25 05:46:39;;;;;;;;;17.75;17.75;;;;;-147.17;100.00;49838.13;5053078;28;51175;-65
2021/10/25 05:49:05;;;;;;;;;24.25;22.50;;;;;-147.17;100.00;49784.97;5049424;28;50957;-65
2021/10/25 05:51:32;;;;;;;;;24.00;23.25;;;;;-147.17;100.00;49788.91;5072660;27;51256;-66
2021/10/25 05:53:59;;;;;;;;;23.25;22.00;;;;;-147.17;100.00;49800.72;5065893;28;52036;-66
2021/10/25 05:56:26;;;;;;;;;25.00;23.50;;;;;-147.17;100.00;49810.56;5061546;28;51082;-63
2021/10/25 05:58:52;;;;;;;;;23.75;22.25;;;;;-147.17;100.00;49784.97;5066963;27;51218;-66
2021/10/25 06:01:20;;;;;;;;;22.25;20.25;;;;;-147.17;100.00;49788.91;5062929;28;51011;-66
2021/10/25 06:03:47;;;;;;;;;19.75;19.75;;;;;-147.17;100.00;49840.09;5067169;28;51321;-64
2021/10/25 06:06:14;;;;;;;;;22.25;21.50;;;;;-147.17;100.00;49808.59;5068902;28;51183;-65
2021/10/25 06:08:40;;;;;;;;;27.75;26.00;;;;;-147.17;100.00;49834.19;5064719;28;51281;-63
2021/10/25 06:11:07;;;;;;;;;24.75;23.50;;;;;-147.17;100.00;49818.44;5068326;28;51003;-66
2021/10/25 06:13:43;;;;;;;;;22.25;20.50;;;;;-147.17;100.00;49800.72;5068627;28;51215;-66
2021/10/25 06:18:34;;;;;;;;;21.75;21.50;;;;;-147.17;100.00;49834.19;5069170;28;51101;-66
2021/10/25 06:20:59;;;;;;;;;24.25;23.25;;;;;-147.17;100.00;49824.34;5065506;28;51254;-66
2021/10/25 06:23:24;;;;;;;;;17.25;17.00;;;;;-147.17;100.00;49779.09;5040767;28;52746;-67
2021/10/25 06:25:53;;;;;;;;;20.25;20.25;;;;;-147.17;100.00;49775.16;5061854;28;51102;-66
2021/10/25 06:28:22;;;;;;;;;26.75;23.75;;;;;-147.17;100.00;49812.53;5060865;28;51096;-66
2021/10/25 06:30:54;;;;;;;;;20.75;20.75;;;;;-147.17;100.00;49773.19;5053238;28;51390;-66
2021/10/25 06:33:21;;;;;;;;;24.25;22.75;;;;;-147.17;100.00;49792.84;5052975;28;51150;-66
2021/10/25 06:35:50;;;;;;;;;26.50;24.75;;;;;-147.17;100.00;49804.66;5063715;28;51258;-66
2021/10/25 06:38:16;;;;;;;;;24.25;23.00;;;;;-147.17;100.00;49796.78;5073630;28;50924;-66
2021/10/25 06:40:41;;;;;;;;;25.75;24.75;;;;;-147.17;100.00;49814.50;5073298;28;50868;-66
2021/10/25 06:43:10;;;;;;;;;24.25;24.00;;;;;-147.17;100.00;49792.84;5066377;28;51634;-66
2021/10/25 06:45:36;;;;;;;;;25.25;24.75;;;;;-147.17;100.00;49759.41;5051860;28;50968;-66
2021/10/25 06:48:01;;;;;;;;;26.25;22.25;;;;;-147.17;100.00;49784.97;5052747;28;51115;-66
2021/10/25 06:50:28;;;;;;;;;23.75;22.00;;;;;-147.17;100.00;49743.66;5053100;28;51322;-66
2021/10/25 06:53:05;;;;;;;;;18.25;17.25;;;;;-147.17;100.00;49777.13;5057371;28;51150;-66
2021/10/25 06:55:31;;;;;;;;;21.75;20.00;;;;;-147.17;100.00;49808.59;5072473;28;51167;-66
2021/10/25 06:57:58;;;;;;;;;24.50;21.00;;;;;-147.17;100.00;49820.41;5054566;28;51022;-66
2021/10/25 07:00:23;;;;;;;;;24.00;22.50;;;;;-147.17;100.00;49763.34;5072667;28;51121;-66
2021/10/25 07:02:49;;;;;;;;;25.25;24.25;;;;;-147.17;100.00;49773.19;5072311;28;51782;-66
2021/10/25 07:05:15;;;;;;;;;26.75;25.00;;;;;-147.17;100.00;49775.16;5072788;28;51173;-66
2021/10/25 07:07:40;;;;;;;;;26.75;25.75;;;;;-147.17;100.00;49769.25;5073192;28;51037;-66
2021/10/25 07:10:07;;;;;;;;;30.25;25.50;;;;;-147.17;100.00;49779.09;5063406;28;50997;-66
2021/10/25 07:12:32;;;;;;;;;9.00;7.00;;;;;-147.17;100.00;49761.38;5052675;28;52198;-66
2021/10/25 07:14:59;;;;;;;;;26.25;23.75;;;;;-147.17;100.00;49755.47;5052510;28;51057;-66
2021/10/25 07:22:56;;;;;;;;;23.00;21.00;;;;;-147.17;100.00;49729.88;5052235;28;52744;-66
2021/10/25 08:01:10;;;;;;;;;25.50;23.00;;;;;-147.17;100.00;49631.47;5072237;28;51392;-67
2021/10/25 08:07:01;;;;;;;;;22.00;20.00;;;;;-147.17;100.00;49659.03;5075085;28;51520;-67
2021/10/25 08:14:32;;;;;;;;;22.75;22.75;;;;;-147.17;100.00;49607.84;5062409;28;51288;-67
2021/10/25 08:16:58;;;;;;;;;26.50;23.00;;;;;-147.17;100.00;49615.72;5075319;28;52741;-67
2021/10/25 08:19:24;;;;;;;;;43.25;38.25;;;;;-147.17;100.00;49643.28;5075594;28;51190;-67
2021/10/25 08:22:04;;;;;;;;;24.75;24.25;;;;;-147.17;100.00;49660.97;5075594;28;51132;-67
2021/10/25 08:24:35;;;;;;;;;23.00;21.75;;;;;-147.17;100.00;49627.53;5075342;28;51238;-67
2021/10/25 08:27:03;;;;;;;;;28.00;23.50;;;;;-147.17;100.00;49635.41;5056811;28;51045;-67
2021/10/25 08:29:29;;;;;;;;;28.50;26.25;;;;;-147.17;100.00;49653.13;5041893;28;51145;-67
2021/10/25 08:32:03;;;;;;;;;27.25;23.75;;;;;-147.17;100.00;49621.63;5055360;28;51028;-67
2021/10/25 08:39:47;;;;;;;;;27.00;25.25;;;;;-147.17;100.00;49613.75;5054446;28;51093;-67
2021/10/25 08:42:33;;;;;;;;;21.50;20.50;;;;;-147.17;100.00;49635.41;5054965;28;51022;-67
2021/10/25 08:45:11;;;;;;;;;18.75;18.75;;;;;-147.17;100.00;49605.88;5054843;28;51308;-67
2021/10/25 08:47:43;;;;;;;;;26.25;24.00;;;;;-147.17;100.00;49566.50;5054213;28;52493;-67
2021/10/25 08:50:12;;;;;;;;;23.00;21.75;;;;;-147.17;100.00;49599.97;5037930;28;51059;-67
2021/10/25 08:52:38;;;;;;;;;23.00;21.50;;;;;-147.17;100.00;49601.94;5060789;28;51073;-66
2021/10/25 08:55:07;;;;;;;;;27.00;24.00;;;;;-147.17;100.00;49643.28;5075000;28;51160;-67
2021/10/25 08:57:34;;;;;;;;;24.00;21.50;;;;;-147.17;100.00;49580.28;5056799;28;51168;-66
2021/10/25 09:00:05;;;;;;;;;23.75;22.25;;;;;-147.17;100.00;49592.09;5074465;28;50988;-67
2021/10/25 09:02:31;;;;;;;;;22.75;21.75;;;;;-147.17;100.00;49601.94;5057023;28;51057;-67
2021/10/25 09:04:57;;;;;;;;;22.00;21.00;;;;;-147.17;100.00;49590.13;5074843;28;51319;-67
2021/10/25 09:07:23;;;;;;;;;27.00;26.00;;;;;-147.17;100.00;49564.53;5074701;28;51089;-67
2021/10/25 09:09:48;;;;;;;;;30.50;26.00;;;;;-147.17;100.00;49586.19;5072083;28;51132;-67
2021/10/25 09:12:15;;;;;;;;;29.75;29.00;;;;;-147.17;100.00;49590.13;5039870;28;51290;-67
2021/10/25 09:14:41;;;;;;;;;26.00;21.25;;;;;-147.17;100.00;49576.34;5062736;28;51209;-66
2021/10/25 09:17:09;;;;;;;;;27.50;26.25;;;;;-147.17;100.00;49566.50;5069820;28;51781;-67
2021/10/25 09:19:36;;;;;;;;;25.75;24.75;;;;;-147.17;100.00;49572.41;5054958;28;51063;-65
2021/10/25 09:22:06;;;;;;;;;25.75;25.25;;;;;-147.17;100.00;49578.31;5074516;28;51134;-65
2021/10/25 09:24:32;;;;;;;;;23.25;21.75;;;;;-147.17;100.00;49564.53;5073553;28;51262;-66
2021/10/25 09:27:03;;;;;;;;;27.25;24.75;;;;;-147.17;100.00;49546.84;5054802;28;51405;-65
2021/10/25 09:29:32;;;;;;;;;29.75;25.00;;;;;-147.17;100.00;49509.44;5059049;28;51122;-67
2021/10/25 09:32:05;;;;;;;;;30.00;27.25;;;;;-147.17;100.00;49485.81;5054401;28;51119;-66
2021/10/25 09:34:54;;;;;;;;;30.25;28.75;;;;;-147.17;100.00;49477.94;5064461;28;50923;-66
2021/10/25 09:37:23;;;;;;;;;26.50;23.50;;;;;-147.17;100.00;49442.53;5073692;28;52423;-66
2021/10/25 09:39:56;;;;;;;;;26.25;23.75;;;;;-147.17;100.00;49436.63;5055740;28;51031;-66
2021/10/25 09:50:42;;;;;;;;;29.25;26.75;;;;;-147.17;100.00;49572.41;5056196;28;51182;-66
2021/10/25 09:53:09;;;;;;;;;25.00;25.00;;;;;-147.17;100.00;49533.06;5053014;28;51178;-66
2021/10/25 09:55:43;;;;;;;;;25.50;25.25;;;;;-147.17;100.00;49580.28;5053422;28;51230;-66
2021/10/25 09:58:20;;;;;;;;;32.00;30.50;;;;;-147.17;100.00;49535.03;5053015;28;52947;-66
2021/10/25 10:00:46;;;;;;;;;28.75;28.00;;;;;-147.17;100.00;49509.44;5053750;28;51168;-66
2021/10/25 10:03:15;;;;;;;;;34.00;32.25;;;;;-147.17;100.00;49493.69;5035601;28;51124;-66
2021/10/25 10:05:42;;;;;;;;;33.50;32.25;;;;;-147.17;100.00;49513.38;5073798;28;50887;-67
2021/10/25 10:08:09;;;;;;;;;25.00;23.75;;;;;-147.17;100.00;49503.53;5058720;28;53049;-66
2021/10/25 10:10:38;;;;;;;;;23.00;22.00;;;;;-147.17;100.00;49466.13;5060562;28;51225;-66
2021/10/25 10:13:05;;;;;;;;;29.00;26.00;;;;;-147.17;100.00;49489.75;5060144;28;51128;-66
2021/10/25 10:15:34;;;;;;;;;30.75;27.75;;;;;-147.17;100.00;49477.94;5074214;28;51363;-66
2021/10/25 10:18:10;;;;;;;;;23.00;22.75;;;;;-147.17;100.00;49497.63;5073344;28;51934;-67
2021/10/25 10:20:39;;;;;;;;;28.50;26.00;;;;;-147.17;100.00;49458.25;5073257;28;51048;-67
2021/10/25 10:23:12;;;;;;;;;26.25;25.75;;;;;-147.17;100.00;49458.25;5073092;28;50912;-67
2021/10/25 10:25:47;;;;;;;;;29.25;28.25;;;;;-147.17;100.00;49450.41;5055191;28;50956;-67
2021/10/25 10:28:15;;;;;;;;;25.75;25.00;;;;;-147.17;100.00;49422.84;5068723;28;52688;-67
2021/10/25 10:30:57;;;;;;;;;28.50;26.25;;;;;-147.17;100.00;49438.59;5053165;28;51272;-67
2021/10/25 10:33:43;;;;;;;;;29.25;26.75;;;;;-147.17;100.00;49430.72;5057663;28;51123;-67
2021/10/25 10:36:10;;;;;;;;;30.75;28.50;;;;;-147.17;100.00;49438.59;5070075;28;51312;-67
2021/10/25 10:39:10;;;;;;;;;36.25;30.00;;;;;-147.17;100.00;49438.59;5053068;28;51953;-67
2021/10/25 10:41:44;;;;;;;;;36.00;29.75;;;;;-147.17;100.00;49432.69;5052683;28;51019;-67
2021/10/25 10:44:12;;;;;;;;;26.25;24.75;;;;;-147.17;100.00;49446.47;5053237;28;51063;-66
2021/10/25 10:46:43;;;;;;;;;35.25;33.25;;;;;-147.17;100.00;49409.06;5053057;28;50976;-67
2021/10/25 10:49:48;;;;;;;;;27.25;26.00;;;;;-147.17;100.00;49389.38;5052513;28;52037;-67
2021/10/25 10:55:05;;;;;;;;;36.25;32.00;;;;;-147.17;100.00;49422.84;5052645;28;51064;-68
2021/10/25 11:00:24;;;;;;;;;38.75;32.00;;;;;-147.17;100.00;49407.09;5052537;28;51225;-67
2021/10/25 11:02:52;;;;;;;;;35.00;32.00;;;;;-147.17;100.00;49411.03;5052711;28;50890;-67
2021/10/25 11:05:47;;;;;;;;;21.75;21.25;;;;;-147.17;100.00;49383.47;5052471;28;50873;-68
2021/10/25 11:08:21;;;;;;;;;27.75;26.75;;;;;-147.17;100.00;49383.47;5040729;28;51492;-68
2021/10/25 11:11:08;;;;;;;;;24.50;23.00;;;;;-147.17;100.00;49405.13;5068375;28;53022;-67
2021/10/25 11:13:45;;;;;;;;;22.25;21.50;;;;;-147.17;100.00;49401.19;5041525;28;51203;-68
2021/10/25 11:16:28;;;;;;;;;22.50;18.75;;;;;-147.17;100.00;49371.66;5035940;28;51162;-70
2021/10/25 11:18:57;;;;;;;;;21.00;20.00;;;;;-147.17;100.00;49352.00;5051930;28;51130;-68
2021/10/25 11:21:28;;;;;;;;;18.25;17.75;;;;;-147.17;100.00;49375.59;5066492;28;52101;-69
2021/10/25 11:24:00;;;;;;;;;20.00;16.50;;;;;-147.17;100.00;49393.31;5072598;28;50980;-72
2021/10/25 11:26:36;;;;;;;;;14.50;13.75;;;;;-147.17;100.00;49407.09;5055736;28;50893;-70
2021/10/25 11:29:08;;;;;;;;;17.50;15.00;;;;;-147.17;100.00;49383.47;5058926;28;51015;-70
2021/10/25 11:31:38;;;;;;;;;19.50;18.00;;;;;-147.17;100.00;49359.84;5051423;28;51710;-71
2021/10/25 11:34:18;;;;;;;;;22.00;21.50;;;;;-147.17;100.00;49332.31;5064522;28;51118;-69
2021/10/25 11:36:53;;;;;;;;;21.00;21.00;;;;;-147.17;100.00;49330.34;5047866;28;51146;-69
2021/10/25 11:39:27;;;;;;;;;17.00;17.00;;;;;-147.17;100.00;49375.59;5051718;28;51325;-71
2021/10/25 11:41:53;;;;;;;;;19.75;18.75;;;;;-147.17;100.00;49395.28;5033521;28;51844;-70
2021/10/25 11:44:18;;;;;;;;;20.00;20.00;;;;;-147.17;100.00;49418.91;5051717;28;51106;-71
2021/10/25 11:46:44;;;;;;;;;19.25;18.25;;;;;-147.17;100.00;49350.03;5052214;28;50996;-70
2021/10/25 11:49:10;;;;;;;;;21.50;20.25;;;;;-147.17;100.00;49387.41;5047372;28;52156;-70
2021/10/25 11:51:55;;;;;;;;;19.00;19.00;;;;;-147.17;100.00;49389.38;5051851;28;51081;-70
2021/10/25 11:54:21;;;;;;;;;21.00;21.00;;;;;-147.17;100.00;49340.19;5051584;28;50949;-70
2021/10/25 11:56:54;;;;;;;;;22.00;17.00;;;;;-147.17;100.00;49346.09;5052026;28;50871;-70
2021/10/25 11:59:22;;;;;;;;;19.00;18.50;;;;;-147.17;100.00;49395.28;5051139;28;51381;-70
2021/10/25 12:01:49;;;;;;;;;22.75;20.75;;;;;-147.17;100.00;49340.19;5051377;28;51153;-70
2021/10/25 12:04:16;;;;;;;;;26.75;26.50;;;;;-147.17;100.00;49344.13;5050808;28;51169;-70
2021/10/25 12:06:53;;;;;;;;;21.50;20.75;;;;;-147.17;100.00;49342.16;5055207;28;51175;-70
2021/10/25 12:09:18;;;;;;;;;14.67;14.67;;;;;-147.17;100.00;49350.03;5051399;28;51126;-69
2021/10/25 12:12:04;;;;;;;;;17.00;15.75;;;;;-147.17;100.00;49395.28;5051132;28;51891;-64
2021/10/25 12:14:31;;;;;;;;;15.00;15.00;;;;;-147.17;100.00;49363.78;5036463;28;51190;-64
2021/10/25 12:16:57;;;;;;;;;15.33;15.33;;;;;-147.17;100.00;49340.19;5051141;28;50948;-65
2021/10/25 12:19:23;;;;;;;;;16.50;16.00;;;;;-147.17;100.00;49326.41;5051770;28;51027;-64
2021/10/25 12:21:49;;;;;;;;;18.25;17.25;;;;;-147.17;100.00;49340.19;5051266;28;52034;-64
2021/10/25 12:24:15;;;;;;;;;15.00;14.33;;;;;-147.17;100.00;49300.81;5062972;28;51171;-60
2021/10/25 12:26:43;;;;;;;;;17.00;16.67;;;;;-147.17;100.00;49320.50;5052938;28;51158;-61
2021/10/25 12:29:19;;;;;;;;;20.25;17.25;;;;;-147.17;100.00;49355.94;5040808;28;51150;-61
2021/10/25 12:31:46;;;;;;;;;19.50;17.75;;;;;-147.17;100.00;49363.78;5050878;28;51853;-60
2021/10/25 12:34:12;;;;;;;;;18.75;17.75;;;;;-147.17;100.00;49304.75;5058382;28;51122;-60
2021/10/25 12:36:40;;;;;;;;;17.33;16.33;;;;;-147.17;100.00;49318.53;5052023;28;50914;-60
2021/10/25 12:39:17;;;;;;;;;15.75;15.75;;;;;-147.17;100.00;49371.66;5069455;28;51255;-60